sensor_id;sensor_type;location;lat;lon;timestamp;pressure;altitude;pressure_sealevel;temperature;humidity
75867;BME280;64513;56.258;43.980;2023-04-24T00:01:24;99766.25;;;18.69;35.39
75867;BME280;64513;56.258;43.980;2023-04-24T00:03:48;99763.44;;;18.65;35.44
75867;BME280;64513;56.258;43.980;2023-04-24T00:06:12;99760.62;;;18.62;35.50
75867;BME280;64513;56.258;43.980;2023-04-24T00:08:38;99763.63;;;18.60;35.77
75867;BME280;64513;56.258;43.980;2023-04-24T00:11:02;99766.63;;;18.58;35.56
75867;BME280;64513;56.258;43.980;2023-04-24T00:13:26;99765.39;;;18.56;35.47
75867;BME280;64513;56.258;43.980;2023-04-24T00:15:51;99764.15;;;18.53;35.73
75867;BME280;64513;56.258;43.980;2023-04-24T00:18:15;99765.59;;;18.51;35.86
75867;BME280;64513;56.258;43.980;2023-04-24T00:20:41;99761.66;;;18.48;35.74
75867;BME280;64513;56.258;43.980;2023-04-24T00:23:05;99763.88;;;18.46;35.83
75867;BME280;64513;56.258;43.980;2023-04-24T00:25:29;99760.75;;;18.44;35.82
75867;BME280;64513;56.258;43.980;2023-04-24T00:27:53;99771.00;;;18.42;36.00
75867;BME280;64513;56.258;43.980;2023-04-24T00:30:18;99765.22;;;18.40;35.91
75867;BME280;64513;56.258;43.980;2023-04-24T00:32:42;99765.86;;;18.37;35.93
75867;BME280;64513;56.258;43.980;2023-04-24T00:35:07;99777.22;;;18.34;35.95
75867;BME280;64513;56.258;43.980;2023-04-24T00:37:31;99774.08;;;18.32;36.02
75867;BME280;64513;56.258;43.980;2023-04-24T00:39:56;99776.30;;;18.30;36.01
75867;BME280;64513;56.258;43.980;2023-04-24T00:42:20;99778.52;;;18.28;36.07
75867;BME280;64513;56.258;43.980;2023-04-24T00:44:45;99764.67;;;18.26;36.21
75867;BME280;64513;56.258;43.980;2023-04-24T00:47:10;99780.30;;;18.24;36.09
75867;BME280;64513;56.258;43.980;2023-04-24T00:49:34;99771.81;;;18.22;36.14
75867;BME280;64513;56.258;43.980;2023-04-24T00:51:58;99772.45;;;18.19;36.31
75867;BME280;64513;56.258;43.980;2023-04-24T00:54:23;99767.42;;;18.17;36.25
75867;BME280;64513;56.258;43.980;2023-04-24T00:56:47;99774.99;;;18.15;36.26
75867;BME280;64513;56.258;43.980;2023-04-24T00:59:13;99777.20;;;18.13;36.39
75867;BME280;64513;56.258;43.980;2023-04-24T01:01:39;99774.85;;;18.12;36.21
75867;BME280;64513;56.258;43.980;2023-04-24T01:04:04;99778.64;;;18.11;36.22
75867;BME280;64513;56.258;43.980;2023-04-24T01:06:29;99773.64;;;18.09;36.22
75867;BME280;64513;56.258;43.980;2023-04-24T01:08:54;99772.39;;;18.07;36.17
75867;BME280;64513;56.258;43.980;2023-04-24T01:11:19;99773.82;;;18.04;36.20
75867;BME280;64513;56.258;43.980;2023-04-24T01:13:43;99772.25;;;18.03;36.19
75867;BME280;64513;56.258;43.980;2023-04-24T01:16:07;99772.11;;;18.00;36.02
75867;BME280;64513;56.258;43.980;2023-04-24T01:18:31;99774.32;;;17.98;36.11
75867;BME280;64513;56.258;43.980;2023-04-24T01:21:16;99776.53;;;17.96;36.43
75867;BME280;64513;56.258;43.980;2023-04-24T01:23:40;99773.42;;;17.94;36.42
75867;BME280;64513;56.258;43.980;2023-04-24T01:26:05;99770.29;;;17.92;36.39
75867;BME280;64513;56.258;43.980;2023-04-24T01:28:29;99767.15;;;17.90;36.62
75867;BME280;64513;56.258;43.980;2023-04-24T01:30:54;99767.80;;;17.86;36.43
75867;BME280;64513;56.258;43.980;2023-04-24T01:33:18;99768.90;;;17.85;36.55
75867;BME280;64513;56.258;43.980;2023-04-24T01:35:45;99766.55;;;17.84;36.65
75867;BME280;64513;56.258;43.980;2023-04-24T01:38:11;99766.86;;;17.82;36.59
75867;BME280;64513;56.258;43.980;2023-04-24T01:40:35;99766.08;;;17.82;36.62
75867;BME280;64513;56.258;43.980;2023-04-24T01:43:00;99768.29;;;17.80;36.80
75867;BME280;64513;56.258;43.980;2023-04-24T01:45:24;99767.51;;;17.79;36.75
75867;BME280;64513;56.258;43.980;2023-04-24T01:47:50;99771.31;;;17.78;36.82
75867;BME280;64513;56.258;43.980;2023-04-24T01:50:14;99767.07;;;17.77;36.73
75867;BME280;64513;56.258;43.980;2023-04-24T01:52:39;99767.39;;;17.76;36.68
75867;BME280;64513;56.258;43.980;2023-04-24T01:55:04;99766.61;;;17.75;36.74
75867;BME280;64513;56.258;43.980;2023-04-24T01:57:29;99774.63;;;17.75;36.84
75867;BME280;64513;56.258;43.980;2023-04-24T01:59:54;99773.06;;;17.74;36.84
75867;BME280;64513;56.258;43.980;2023-04-24T02:02:18;99770.70;;;17.73;36.77
75867;BME280;64513;56.258;43.980;2023-04-24T02:04:44;99775.27;;;17.72;36.71
75867;BME280;64513;56.258;43.980;2023-04-24T02:07:08;99774.48;;;17.72;36.77
75867;BME280;64513;56.258;43.980;2023-04-24T02:09:32;99778.27;;;17.71;36.86
75867;BME280;64513;56.258;43.980;2023-04-24T02:11:57;99775.59;;;17.71;36.98
75867;BME280;64513;56.258;43.980;2023-04-24T02:14:22;99774.63;;;17.75;36.91
75867;BME280;64513;56.258;43.980;2023-04-24T02:16:46;99779.77;;;17.80;36.84
75867;BME280;64513;56.258;43.980;2023-04-24T02:19:11;99773.92;;;17.87;36.69
75867;BME280;64513;56.258;43.980;2023-04-24T02:21:35;99786.13;;;17.97;36.58
75867;BME280;64513;56.258;43.980;2023-04-24T02:23:59;99783.09;;;18.07;36.48
75867;BME280;64513;56.258;43.980;2023-04-24T02:26:24;99789.63;;;18.18;36.40
75867;BME280;64513;56.258;43.980;2023-04-24T02:28:48;99788.58;;;18.31;36.26
75867;BME280;64513;56.258;43.980;2023-04-24T02:31:12;99793.66;;;18.45;36.19
75867;BME280;64513;56.258;43.980;2023-04-24T02:33:37;99788.52;;;18.61;36.01
75867;BME280;64513;56.258;43.980;2023-04-24T02:36:01;99788.82;;;18.80;35.88
75867;BME280;64513;56.258;43.980;2023-04-24T02:38:25;99794.27;;;19.04;35.61
75867;BME280;64513;56.258;43.980;2023-04-24T02:40:49;99795.87;;;19.30;35.44
75867;BME280;64513;56.258;43.980;2023-04-24T02:43:14;99797.47;;;19.55;35.22
75867;BME280;64513;56.258;43.980;2023-04-24T02:45:38;99802.97;;;19.83;35.04
75867;BME280;64513;56.258;43.980;2023-04-24T02:48:02;99801.48;;;20.10;34.77
75867;BME280;64513;56.258;43.980;2023-04-24T02:50:26;99793.83;;;20.36;34.58
75867;BME280;64513;56.258;43.980;2023-04-24T02:52:50;99804.59;;;20.64;34.43
75867;BME280;64513;56.258;43.980;2023-04-24T02:55:14;99806.16;;;20.93;34.30
75867;BME280;64513;56.258;43.980;2023-04-24T02:57:39;99807.70;;;21.22;34.11
75867;BME280;64513;56.258;43.980;2023-04-24T03:00:03;99807.62;;;21.50;33.88
75867;BME280;64513;56.258;43.980;2023-04-24T03:02:28;99815.23;;;21.79;33.77
75867;BME280;64513;56.258;43.980;2023-04-24T03:04:53;99822.41;;;22.07;33.42
75867;BME280;64513;56.258;43.980;2023-04-24T03:07:18;99821.83;;;22.32;33.17
75867;BME280;64513;56.258;43.980;2023-04-24T03:09:43;99821.62;;;22.60;32.94
75867;BME280;64513;56.258;43.980;2023-04-24T03:12:07;99829.44;;;22.85;32.73
75867;BME280;64513;56.258;43.980;2023-04-24T03:14:31;99824.16;;;23.11;32.53
75867;BME280;64513;56.258;43.980;2023-04-24T03:16:56;99834.66;;;23.39;32.24
75867;BME280;64513;56.258;43.980;2023-04-24T03:19:20;99830.47;;;23.64;32.00
75867;BME280;64513;56.258;43.980;2023-04-24T03:21:44;99833.23;;;23.94;32.51
75867;BME280;64513;56.258;43.980;2023-04-24T03:24:08;99833.81;;;24.33;33.63
75867;BME280;64513;56.258;43.980;2023-04-24T03:27:03;99842.39;;;24.72;33.48
75867;BME280;64513;56.258;43.980;2023-04-24T03:28:59;99842.80;;;25.08;33.88
75867;BME280;64513;56.258;43.980;2023-04-24T03:31:23;99834.62;;;25.41;33.21
75867;BME280;64513;56.258;43.980;2023-04-24T03:33:47;99838.42;;;25.77;32.90
75867;BME280;64513;56.258;43.980;2023-04-24T03:36:12;99845.60;;;26.10;32.59
75867;BME280;64513;56.258;43.980;2023-04-24T03:38:36;99843.47;;;26.41;32.32
75867;BME280;64513;56.258;43.980;2023-04-24T03:41:00;99854.83;;;26.71;31.69
75867;BME280;64513;56.258;43.980;2023-04-24T03:43:25;99854.17;;;27.03;31.12
75867;BME280;64513;56.258;43.980;2023-04-24T03:45:49;99859.26;;;27.33;30.66
75867;BME280;64513;56.258;43.980;2023-04-24T03:48:13;99857.73;;;27.56;30.46
75867;BME280;64513;56.258;43.980;2023-04-24T03:50:37;99856.18;;;27.77;30.00
75867;BME280;64513;56.258;43.980;2023-04-24T03:53:01;99857.72;;;27.96;29.86
75867;BME280;64513;56.258;43.980;2023-04-24T03:55:26;99849.14;;;28.11;29.76
75867;BME280;64513;56.258;43.980;2023-04-24T03:57:50;99859.23;;;28.25;29.38
75867;BME280;64513;56.258;43.980;2023-04-24T04:00:14;99858.45;;;28.32;29.21
75867;BME280;64513;56.258;43.980;2023-04-24T04:02:40;99860.78;;;28.30;29.12
75867;BME280;64513;56.258;43.980;2023-04-24T04:05:04;99868.55;;;28.27;29.17
75867;BME280;64513;56.258;43.980;2023-04-24T04:07:29;99870.11;;;28.25;29.41
75867;BME280;64513;56.258;43.980;2023-04-24T04:09:53;99866.61;;;28.24;29.17
75867;BME280;64513;56.258;43.980;2023-04-24T04:12:17;99869.72;;;28.26;29.28
75867;BME280;64513;56.258;43.980;2023-04-24T04:14:41;99867.77;;;28.31;29.36
75867;BME280;64513;56.258;43.980;2023-04-24T04:17:06;99873.95;;;28.38;29.47
75867;BME280;64513;56.258;43.980;2023-04-24T04:19:30;99874.72;;;28.46;29.23
75867;BME280;64513;56.258;43.980;2023-04-24T04:21:54;99873.90;;;28.52;29.28
75867;BME280;64513;56.258;43.980;2023-04-24T04:24:18;99877.00;;;28.58;28.98
75867;BME280;64513;56.258;43.980;2023-04-24T04:26:43;99878.92;;;28.65;28.78
75867;BME280;64513;56.258;43.980;2023-04-24T04:29:08;99884.33;;;28.72;28.99
75867;BME280;64513;56.258;43.980;2023-04-24T04:31:33;99885.47;;;28.81;29.26
75867;BME280;64513;56.258;43.980;2023-04-24T04:33:58;99894.37;;;28.92;29.19
75867;BME280;64513;56.258;43.980;2023-04-24T04:36:23;99894.70;;;29.02;28.88
75867;BME280;64513;56.258;43.980;2023-04-24T04:38:47;99895.06;;;29.11;28.54
75867;BME280;64513;56.258;43.980;2023-04-24T04:41:11;99891.88;;;29.19;28.35
75867;BME280;64513;56.258;43.980;2023-04-24T04:43:35;99894.53;;;29.30;28.72
75867;BME280;64513;56.258;43.980;2023-04-24T04:46:01;99898.38;;;29.43;28.39
75867;BME280;64513;56.258;43.980;2023-04-24T04:48:26;99894.40;;;29.55;28.25
75867;BME280;64513;56.258;43.980;2023-04-24T04:50:52;99897.78;;;29.70;28.34
75867;BME280;64513;56.258;43.980;2023-04-24T04:53:16;99897.26;;;29.85;28.44
75867;BME280;64513;56.258;43.980;2023-04-24T04:55:41;99901.83;;;29.99;28.44
75867;BME280;64513;56.258;43.980;2023-04-24T04:58:05;99904.02;;;30.15;27.86
75867;BME280;64513;56.258;43.980;2023-04-24T05:00:29;99911.66;;;30.30;27.61
75867;BME280;64513;56.258;43.980;2023-04-24T05:02:55;99918.50;;;30.46;27.75
75867;BME280;64513;56.258;43.980;2023-04-24T05:05:19;99911.73;;;30.61;27.26
75867;BME280;64513;56.258;43.980;2023-04-24T05:07:44;99909.97;;;30.78;27.07
75867;BME280;64513;56.258;43.980;2023-04-24T05:10:09;99915.61;;;30.94;26.59
75867;BME280;64513;56.258;43.980;2023-04-24T05:12:33;99909.94;;;31.12;26.94
75867;BME280;64513;56.258;43.980;2023-04-24T05:14:57;99915.93;;;31.30;26.28
75867;BME280;64513;56.258;43.980;2023-04-24T05:17:21;99916.44;;;31.48;26.11
75867;BME280;64513;56.258;43.980;2023-04-24T05:19:46;99915.39;;;31.65;25.85
75867;BME280;64513;56.258;43.980;2023-04-24T05:22:10;99915.88;;;31.84;25.44
75867;BME280;64513;56.258;43.980;2023-04-24T05:24:34;99914.80;;;32.01;25.33
75867;BME280;64513;56.258;43.980;2023-04-24T05:26:59;99909.01;;;32.19;25.09
75867;BME280;64513;56.258;43.980;2023-04-24T05:29:23;99914.53;;;32.38;25.04
75867;BME280;64513;56.258;43.980;2023-04-24T05:31:47;99919.58;;;32.60;25.30
75867;BME280;64513;56.258;43.980;2023-04-24T05:34:12;99918.34;;;32.84;25.07
75867;BME280;64513;56.258;43.980;2023-04-24T05:36:38;99913.85;;;33.10;25.23
75867;BME280;64513;56.258;43.980;2023-04-24T05:39:02;99916.42;;;33.37;25.05
75867;BME280;64513;56.258;43.980;2023-04-24T05:41:26;99913.84;;;33.62;24.75
75867;BME280;64513;56.258;43.980;2023-04-24T05:43:51;99914.36;;;33.90;24.74
75867;BME280;64513;56.258;43.980;2023-04-24T05:46:15;99913.27;;;34.16;24.56
75867;BME280;64513;56.258;43.980;2023-04-24T05:48:39;99924.39;;;34.41;24.56
75867;BME280;64513;56.258;43.980;2023-04-24T05:51:03;99926.42;;;34.66;24.08
75867;BME280;64513;56.258;43.980;2023-04-24T05:53:27;99921.02;;;34.92;24.04
75867;BME280;64513;56.258;43.980;2023-04-24T05:55:52;99919.91;;;35.14;23.93
75867;BME280;64513;56.258;43.980;2023-04-24T05:58:16;99928.64;;;35.38;23.58
75867;BME280;64513;56.258;43.980;2023-04-24T06:00:41;99923.20;;;35.60;23.38
75867;BME280;64513;56.258;43.980;2023-04-24T06:03:06;99930.02;;;35.81;23.30
75867;BME280;64513;56.258;43.980;2023-04-24T06:05:31;99923.36;;;36.04;23.07
75867;BME280;64513;56.258;43.980;2023-04-24T06:07:56;99930.00;;;36.28;23.06
75867;BME280;64513;56.258;43.980;2023-04-24T06:10:20;99928.92;;;36.47;23.07
75867;BME280;64513;56.258;43.980;2023-04-24T06:12:44;99926.13;;;36.69;22.63
75867;BME280;64513;56.258;43.980;2023-04-24T06:15:09;99925.05;;;36.88;22.54
75867;BME280;64513;56.258;43.980;2023-04-24T06:17:34;99933.72;;;37.09;22.28
75867;BME280;64513;56.258;43.980;2023-04-24T06:19:58;99934.59;;;37.28;22.33
75867;BME280;64513;56.258;43.980;2023-04-24T06:22:22;99916.56;;;37.45;22.02
75867;BME280;64513;56.258;43.980;2023-04-24T06:24:46;99931.48;;;37.66;22.03
75867;BME280;64513;56.258;43.980;2023-04-24T06:27:11;99922.16;;;37.81;21.71
75867;BME280;64513;56.258;43.980;2023-04-24T06:29:36;99927.08;;;37.96;21.30
75867;BME280;64513;56.258;43.980;2023-04-24T06:32:00;99924.80;;;38.12;21.09
75867;BME280;64513;56.258;43.980;2023-04-24T06:34:24;99919.42;;;38.27;21.08
75867;BME280;64513;56.258;43.980;2023-04-24T06:36:48;99915.75;;;38.39;20.93
75867;BME280;64513;56.258;43.980;2023-04-24T06:39:12;99920.20;;;38.55;20.77
75867;BME280;64513;56.258;43.980;2023-04-24T06:41:36;99921.85;;;38.71;20.85
75867;BME280;64513;56.258;43.980;2023-04-24T06:44:01;99924.42;;;38.83;20.41
75867;BME280;64513;56.258;43.980;2023-04-24T06:46:25;99929.75;;;38.96;20.35
75867;BME280;64513;56.258;43.980;2023-04-24T06:48:50;99933.09;;;39.09;20.21
75867;BME280;64513;56.258;43.980;2023-04-24T06:51:16;99928.01;;;39.17;19.91
75867;BME280;64513;56.258;43.980;2023-04-24T06:53:40;99931.18;;;39.24;19.80
75867;BME280;64513;56.258;43.980;2023-04-24T06:56:04;99934.19;;;39.36;19.82
75867;BME280;64513;56.258;43.980;2023-04-24T06:58:29;99934.19;;;39.45;19.79
75867;BME280;64513;56.258;43.980;2023-04-24T07:00:54;99935.19;;;39.56;20.04
75867;BME280;64513;56.258;43.980;2023-04-24T07:03:18;99941.45;;;39.66;19.87
75867;BME280;64513;56.258;43.980;2023-04-24T07:05:43;99939.67;;;39.78;19.62
75867;BME280;64513;56.258;43.980;2023-04-24T07:08:07;99937.91;;;39.89;19.65
75867;BME280;64513;56.258;43.980;2023-04-24T07:10:33;99937.56;;;39.96;19.57
75867;BME280;64513;56.258;43.980;2023-04-24T07:12:57;99928.88;;;40.04;19.35
75867;BME280;64513;56.258;43.980;2023-04-24T07:15:21;99935.00;;;40.08;19.45
75867;BME280;64513;56.258;43.980;2023-04-24T07:17:46;99935.89;;;40.14;19.43
75867;BME280;64513;56.258;43.980;2023-04-24T07:20:11;99932.73;;;40.21;19.25
75867;BME280;64513;56.258;43.980;2023-04-24T07:22:37;99931.49;;;40.22;19.25
75867;BME280;64513;56.258;43.980;2023-04-24T07:25:02;99939.16;;;40.27;19.27
75867;BME280;64513;56.258;43.980;2023-04-24T07:27:26;99936.97;;;40.31;19.23
75867;BME280;64513;56.258;43.980;2023-04-24T07:29:50;99933.54;;;40.36;19.13
75867;BME280;64513;56.258;43.980;2023-04-24T07:32:14;99942.44;;;40.40;19.06
75867;BME280;64513;56.258;43.980;2023-04-24T07:34:39;99935.19;;;40.43;19.02
75867;BME280;64513;56.258;43.980;2023-04-24T07:37:03;99936.23;;;40.45;18.88
75867;BME280;64513;56.258;43.980;2023-04-24T07:39:27;99933.73;;;40.47;18.87
75867;BME280;64513;56.258;43.980;2023-04-24T07:41:51;99940.52;;;40.46;18.78
75867;BME280;64513;56.258;43.980;2023-04-24T07:44:15;99933.94;;;40.44;18.66
75867;BME280;64513;56.258;43.980;2023-04-24T07:46:40;99934.70;;;40.44;18.70
75867;BME280;64513;56.258;43.980;2023-04-24T07:49:05;99936.72;;;40.44;18.79
75867;BME280;64513;56.258;43.980;2023-04-24T07:51:29;99934.42;;;40.42;18.60
75867;BME280;64513;56.258;43.980;2023-04-24T07:53:55;99933.83;;;40.38;18.53
75867;BME280;64513;56.258;43.980;2023-04-24T07:56:19;99931.53;;;40.37;18.55
75867;BME280;64513;56.258;43.980;2023-04-24T07:58:43;99929.72;;;40.34;18.45
75867;BME280;64513;56.258;43.980;2023-04-24T08:01:07;99927.13;;;40.30;18.44
75867;BME280;64513;56.258;43.980;2023-04-24T08:03:34;99924.06;;;40.28;18.50
75867;BME280;64513;56.258;43.980;2023-04-24T08:05:58;99928.25;;;40.23;18.54
75867;BME280;64513;56.258;43.980;2023-04-24T08:08:23;99923.83;;;40.17;18.59
75867;BME280;64513;56.258;43.980;2023-04-24T08:10:47;99928.05;;;40.12;18.54
75867;BME280;64513;56.258;43.980;2023-04-24T08:13:11;99924.10;;;40.04;18.45
75867;BME280;64513;56.258;43.980;2023-04-24T08:15:35;99928.02;;;39.98;18.49
75867;BME280;64513;56.258;43.980;2023-04-24T08:18:00;99919.59;;;39.92;18.57
75867;BME280;64513;56.258;43.980;2023-04-24T08:20:24;99923.00;;;39.87;18.56
75867;BME280;64513;56.258;43.980;2023-04-24T08:22:48;99928.77;;;39.74;18.75
75867;BME280;64513;56.258;43.980;2023-04-24T08:25:13;99921.34;;;39.56;18.78
75867;BME280;64513;56.258;43.980;2023-04-24T08:27:39;99918.48;;;39.42;18.82
75867;BME280;64513;56.258;43.980;2023-04-24T08:30:05;99909.52;;;39.23;18.91
75867;BME280;64513;56.258;43.980;2023-04-24T08:32:30;99905.61;;;39.06;18.81
75867;BME280;64513;56.258;43.980;2023-04-24T08:34:56;99894.73;;;38.93;18.77
75867;BME280;64513;56.258;43.980;2023-04-24T08:37:20;99899.09;;;38.76;19.10
75867;BME280;64513;56.258;43.980;2023-04-24T08:39:44;99896.98;;;38.62;18.85
75867;BME280;64513;56.258;43.980;2023-04-24T08:42:09;99899.45;;;38.50;18.89
75867;BME280;64513;56.258;43.980;2023-04-24T08:44:36;99892.88;;;38.39;18.55
75867;BME280;64513;56.258;43.980;2023-04-24T08:49:47;99893.05;;;38.17;18.84
75867;BME280;64513;56.258;43.980;2023-04-24T08:52:13;99888.90;;;38.03;19.03
75867;BME280;64513;56.258;43.980;2023-04-24T08:54:37;99890.91;;;37.94;18.88
75867;BME280;64513;56.258;43.980;2023-04-24T08:57:02;99888.44;;;37.77;19.08
75867;BME280;64513;56.258;43.980;2023-04-24T08:59:28;99886.57;;;37.65;19.01
75867;BME280;64513;56.258;43.980;2023-04-24T09:01:53;99878.09;;;37.50;18.71
75867;BME280;64513;56.258;43.980;2023-04-24T09:04:20;99875.16;;;37.36;18.99
75867;BME280;64513;56.258;43.980;2023-04-24T09:06:49;99883.55;;;37.23;19.19
75867;BME280;64513;56.258;43.980;2023-04-24T09:09:13;99874.16;;;37.11;19.66
75867;BME280;64513;56.258;43.980;2023-04-24T09:11:39;99867.05;;;37.01;19.41
75867;BME280;64513;56.258;43.980;2023-04-24T09:14:04;99867.30;;;36.85;19.15
75867;BME280;64513;56.258;43.980;2023-04-24T09:16:28;99860.48;;;36.68;19.25
75867;BME280;64513;56.258;43.980;2023-04-24T09:18:56;99847.19;;;36.44;19.38
75867;BME280;64513;56.258;43.980;2023-04-24T09:21:21;99854.92;;;36.15;19.48
75867;BME280;64513;56.258;43.980;2023-04-24T09:23:46;99861.77;;;35.89;19.68
75867;BME280;64513;56.258;43.980;2023-04-24T09:26:10;99854.00;;;35.62;19.72
75867;BME280;64513;56.258;43.980;2023-04-24T09:28:37;99861.22;;;35.34;19.91
75867;BME280;64513;56.258;43.980;2023-04-24T09:31:22;99852.64;;;35.06;19.94
75867;BME280;64513;56.258;43.980;2023-04-24T09:34:06;99860.53;;;34.79;20.30
75867;BME280;64513;56.258;43.980;2023-04-24T09:36:32;99859.48;;;34.47;20.32
75867;BME280;64513;56.258;43.980;2023-04-24T09:39:00;99849.83;;;34.14;20.49
75867;BME280;64513;56.258;43.980;2023-04-24T09:41:26;99845.09;;;33.86;20.73
75867;BME280;64513;56.258;43.980;2023-04-24T09:43:50;99843.41;;;33.59;20.96
75867;BME280;64513;56.258;43.980;2023-04-24T09:46:18;99842.84;;;33.35;21.29
75867;BME280;64513;56.258;43.980;2023-04-24T09:48:43;99839.10;;;33.09;21.29
75867;BME280;64513;56.258;43.980;2023-04-24T09:51:07;99836.17;;;32.84;21.42
75867;BME280;64513;56.258;43.980;2023-04-24T09:53:53;99835.83;;;32.62;21.49
75867;BME280;64513;56.258;43.980;2023-04-24T09:56:17;99841.48;;;32.35;21.74
75867;BME280;64513;56.258;43.980;2023-04-24T09:58:41;99838.86;;;32.08;22.11
75867;BME280;64513;56.258;43.980;2023-04-24T10:01:06;99832.29;;;31.83;22.01
75867;BME280;64513;56.258;43.980;2023-04-24T10:03:32;99827.55;;;31.63;22.23
75867;BME280;64513;56.258;43.980;2023-04-24T10:08:41;99824.63;;;31.27;22.55
75867;BME280;64513;56.258;43.980;2023-04-24T10:11:08;99820.28;;;31.03;22.67
75867;BME280;64513;56.258;43.980;2023-04-24T10:13:32;99812.78;;;30.84;22.95
75867;BME280;64513;56.258;43.980;2023-04-24T10:15:59;99811.48;;;30.65;23.23
75867;BME280;64513;56.258;43.980;2023-04-24T10:18:24;99806.99;;;30.48;23.10
75867;BME280;64513;56.258;43.980;2023-04-24T10:20:49;99812.63;;;30.33;23.56
75867;BME280;64513;56.258;43.980;2023-04-24T10:23:15;99812.80;;;30.19;23.77
75867;BME280;64513;56.258;43.980;2023-04-24T10:25:41;99802.86;;;30.02;23.99
75867;BME280;64513;56.258;43.980;2023-04-24T10:28:06;99815.84;;;29.87;23.84
75867;BME280;64513;56.258;43.980;2023-04-24T10:30:32;99801.59;;;29.73;24.04
75867;BME280;64513;56.258;43.980;2023-04-24T10:32:57;99807.12;;;29.62;24.83
75867;BME280;64513;56.258;43.980;2023-04-24T10:35:21;99806.05;;;29.52;24.67
75867;BME280;64513;56.258;43.980;2023-04-24T10:37:50;99800.31;;;29.43;24.61
75867;BME280;64513;56.258;43.980;2023-04-24T10:40:35;99792.17;;;29.32;24.50
75867;BME280;64513;56.258;43.980;2023-04-24T10:43:34;99789.17;;;29.20;24.41
75867;BME280;64513;56.258;43.980;2023-04-24T10:45:28;99792.00;;;29.06;24.45
75867;BME280;64513;56.258;43.980;2023-04-24T10:48:12;99802.20;;;28.94;25.03
75867;BME280;64513;56.258;43.980;2023-04-24T10:50:58;99797.19;;;28.86;25.41
75867;BME280;64513;56.258;43.980;2023-04-24T10:53:24;99798.02;;;28.72;25.32
75867;BME280;64513;56.258;43.980;2023-04-24T10:55:50;99791.88;;;28.61;25.49
75867;BME280;64513;56.258;43.980;2023-04-24T10:58:15;99790.34;;;28.53;25.33
75867;BME280;64513;56.258;43.980;2023-04-24T11:00:40;99788.84;;;28.45;25.45
75867;BME280;64513;56.258;43.980;2023-04-24T11:03:12;99784.97;;;28.39;25.73
75867;BME280;64513;56.258;43.980;2023-04-24T11:05:55;99784.64;;;28.30;26.02
75867;BME280;64513;56.258;43.980;2023-04-24T11:11:24;99783.85;;;28.18;26.11
75867;BME280;64513;56.258;43.980;2023-04-24T11:14:10;99770.30;;;28.11;25.86
75867;BME280;64513;56.258;43.980;2023-04-24T11:16:37;99778.08;;;28.06;26.10
75867;BME280;64513;56.258;43.980;2023-04-24T11:19:04;99763.75;;;27.98;26.11
75867;BME280;64513;56.258;43.980;2023-04-24T11:22:19;99765.31;;;27.92;26.13
75867;BME280;64513;56.258;43.980;2023-04-24T11:27:20;99772.33;;;27.82;26.40
75867;BME280;64513;56.258;43.980;2023-04-24T11:32:52;99757.20;;;27.71;26.58
75867;BME280;64513;56.258;43.980;2023-04-24T11:35:18;99756.06;;;27.65;26.43
75867;BME280;64513;56.258;43.980;2023-04-24T11:37:46;99761.50;;;27.57;26.67
75867;BME280;64513;56.258;43.980;2023-04-24T11:40:12;99754.90;;;27.51;26.41
75867;BME280;64513;56.258;43.980;2023-04-24T11:42:59;99756.84;;;27.47;26.24
75867;BME280;64513;56.258;43.980;2023-04-24T11:45:47;99749.08;;;27.42;26.61
75867;BME280;64513;56.258;43.980;2023-04-24T11:48:08;99752.56;;;27.39;26.45
75867;BME280;64513;56.258;43.980;2023-04-24T11:50:32;99752.20;;;27.37;26.84
75867;BME280;64513;56.258;43.980;2023-04-24T11:52:56;99763.84;;;27.34;26.40
75867;BME280;64513;56.258;43.980;2023-04-24T11:55:24;99739.01;;;27.32;26.33
75867;BME280;64513;56.258;43.980;2023-04-24T11:57:50;99742.89;;;27.31;26.22
75867;BME280;64513;56.258;43.980;2023-04-24T12:00:35;99737.06;;;27.29;26.91
75867;BME280;64513;56.258;43.980;2023-04-24T12:03:19;99732.41;;;27.26;26.60
75867;BME280;64513;56.258;43.980;2023-04-24T12:05:44;99734.37;;;27.22;26.62
75867;BME280;64513;56.258;43.980;2023-04-24T12:08:08;99737.08;;;27.18;26.16
75867;BME280;64513;56.258;43.980;2023-04-24T12:10:33;99735.91;;;27.16;26.27
75867;BME280;64513;56.258;43.980;2023-04-24T12:12:58;99723.11;;;27.13;26.56
75867;BME280;64513;56.258;43.980;2023-04-24T12:15:23;99727.76;;;27.09;26.87
75867;BME280;64513;56.258;43.980;2023-04-24T12:17:50;99721.58;;;27.05;26.18
75867;BME280;64513;56.258;43.980;2023-04-24T12:20:14;99725.06;;;27.02;26.62
75867;BME280;64513;56.258;43.980;2023-04-24T12:23:00;99723.50;;;27.01;26.38
75867;BME280;64513;56.258;43.980;2023-04-24T12:28:11;99716.91;;;26.95;26.39
75867;BME280;64513;56.258;43.980;2023-04-24T12:33:22;99713.78;;;26.85;26.56
75867;BME280;64513;56.258;43.980;2023-04-24T12:35:47;99714.92;;;26.77;26.33
75867;BME280;64513;56.258;43.980;2023-04-24T12:38:13;99719.59;;;26.73;26.13
75867;BME280;64513;56.258;43.980;2023-04-24T12:40:37;99711.82;;;26.68;26.15
75867;BME280;64513;56.258;43.980;2023-04-24T12:43:12;99708.70;;;26.63;26.12
75867;BME280;64513;56.258;43.980;2023-04-24T12:45:28;99712.20;;;26.60;26.16
75867;BME280;64513;56.258;43.980;2023-04-24T12:47:53;99707.93;;;26.55;26.08
75867;BME280;64513;56.258;43.980;2023-04-24T12:50:17;99700.16;;;26.50;26.31
75867;BME280;64513;56.258;43.980;2023-04-24T12:52:42;99697.81;;;26.45;26.64
75867;BME280;64513;56.258;43.980;2023-04-24T12:55:07;99698.61;;;26.42;26.69
75867;BME280;64513;56.258;43.980;2023-04-24T12:57:33;99697.04;;;26.37;26.55
75867;BME280;64513;56.258;43.980;2023-04-24T12:59:59;99696.25;;;26.33;26.47
75867;BME280;64513;56.258;43.980;2023-04-24T13:02:24;99685.39;;;26.30;26.49